Time;durP1;ratioP1;P1;durP2;ratioP2;P2;SDS_P1;SDS_P2;PMS_P1;PMS_P2;Temp;Humidity;BMP_temperature;BMP_pressure;BME280_temperature;BME280_humidity;BME280_pressure;Samples;Min_cycle;Max_cycle;Signal;HPM_P1;HPM_P2
2023/09/03 00:00:28;;;;;;;4.57;4.18;;;13.60;99.90;;;;;;5100357;28;20289;-60
2023/09/03 00:02:54;;;;;;;4.35;3.95;;;13.50;99.90;;;;;;5093099;28;20098;-61
2023/09/03 00:05:20;;;;;;;6.07;5.20;;;13.50;99.90;;;;;;5083679;28;20497;-61
2023/09/03 00:07:46;;;;;;;7.32;4.70;;;13.50;99.90;;;;;;5099435;28;20047;-60
2023/09/03 00:10:11;;;;;;;5.32;4.70;;;13.40;99.90;;;;;;5105547;28;20079;-57
2023/09/03 00:12:37;;;;;;;5.88;5.25;;;13.40;99.90;;;;;;5094601;27;20558;-57
2023/09/03 00:15:04;;;;;;;5.70;5.10;;;13.40;99.90;;;;;;5103092;27;20063;-57
2023/09/03 00:17:30;;;;;;;6.47;5.88;;;13.40;99.90;;;;;;5096298;28;20066;-57
2023/09/03 00:19:56;;;;;;;6.57;5.88;;;13.40;99.90;;;;;;5097763;28;20155;-57
2023/09/03 00:22:22;;;;;;;9.07;5.97;;;13.30;99.90;;;;;;5087584;28;20126;-56
2023/09/03 00:24:50;;;;;;;7.57;6.72;;;13.30;99.90;;;;;;5094408;28;20596;-56
2023/09/03 00:27:16;;;;;;;9.60;5.90;;;13.30;99.90;;;;;;5086498;28;20055;-57
2023/09/03 00:29:41;;;;;;;7.80;5.72;;;13.20;99.90;;;;;;5102338;28;20056;-56
2023/09/03 00:32:07;;;;;;;5.88;5.38;;;13.20;99.90;;;;;;5097620;28;20059;-56
2023/09/03 00:34:36;;;;;;;6.53;5.88;;;13.10;99.90;;;;;;5096715;28;20055;-57
2023/09/03 00:37:02;;;;;;;13.90;11.07;;;13.10;99.90;;;;;;5102085;27;20181;-57
2023/09/03 00:39:27;;;;;;;58.85;39.15;;;13.10;99.90;;;;;;5097392;28;20161;-56
2023/09/03 00:41:53;;;;;;;36.85;23.50;;;13.10;99.90;;;;;;5092914;28;20487;-56
2023/09/03 00:44:19;;;;;;;19.88;14.15;;;13.00;99.90;;;;;;5099144;28;20047;-56
2023/09/03 00:46:45;;;;;;;18.63;12.85;;;13.00;99.90;;;;;;5080651;28;20051;-58
2023/09/03 00:49:14;;;;;;;15.18;11.15;;;13.00;99.90;;;;;;5098360;28;20427;-57
2023/09/03 00:51:40;;;;;;;13.13;9.57;;;13.00;99.90;;;;;;5085866;28;20142;-56
2023/09/03 00:54:06;;;;;;;16.52;12.48;;;13.00;99.90;;;;;;5082810;28;20131;-59
2023/09/03 00:56:36;;;;;;;13.13;10.02;;;13.00;99.90;;;;;;5082665;28;20067;-57
2023/09/03 00:59:02;;;;;;;15.15;12.27;;;13.00;99.90;;;;;;5110762;28;20065;-57
2023/09/03 01:01:29;;;;;;;15.82;13.00;;;12.90;99.90;;;;;;5064921;28;20054;-57
2023/09/03 01:03:56;;;;;;;18.85;13.48;;;12.90;99.90;;;;;;5092260;28;20382;-57
2023/09/03 01:06:22;;;;;;;17.98;14.88;;;12.90;99.90;;;;;;5099057;28;20051;-57
2023/09/03 01:08:47;;;;;;;15.45;12.30;;;13.00;99.90;;;;;;5092516;28;20044;-57
2023/09/03 01:11:35;;;;;;;10.95;8.35;;;12.90;99.90;;;;;;5086725;28;20059;-57
2023/09/03 01:17:35;;;;;;;9.60;8.15;;;12.80;99.90;;;;;;5083034;28;20060;-57
2023/09/03 01:20:18;;;;;;;13.88;9.52;;;12.80;99.90;;;;;;5085700;28;21297;-57
2023/09/03 01:23:06;;;;;;;10.55;9.25;;;12.90;99.90;;;;;;5084334;28;20184;-57
2023/09/03 01:25:50;;;;;;;10.68;9.30;;;12.80;99.90;;;;;;5061085;28;20580;-56
2023/09/03 01:28:26;;;;;;;13.55;10.88;;;12.80;99.90;;;;;;5086595;28;20135;-57
2023/09/03 01:31:02;;;;;;;13.93;10.43;;;12.80;99.90;;;;;;5100868;28;20093;-57
2023/09/03 01:33:30;;;;;;;13.48;9.88;;;12.80;99.90;;;;;;5064009;28;20052;-57
2023/09/03 01:35:57;;;;;;;12.55;9.80;;;12.80;99.90;;;;;;4995627;28;1455250;-58
2023/09/03 01:38:23;;;;;;;13.98;9.45;;;12.80;99.90;;;;;;5063186;28;20080;-59
2023/09/03 01:40:57;;;;;;;12.20;10.05;;;12.80;99.90;;;;;;5075371;28;20063;-57
2023/09/03 01:43:23;;;;;;;13.80;10.40;;;12.80;99.90;;;;;;5103390;28;20055;-57
2023/09/03 01:45:57;;;;;;;13.80;10.45;;;12.90;99.90;;;;;;5063941;28;20056;-57
2023/09/03 01:48:29;;;;;;;12.98;10.15;;;12.90;99.90;;;;;;5063523;28;20131;-57
2023/09/03 01:51:15;;;;;;;10.43;9.25;;;12.90;99.90;;;;;;5049804;28;22391;-57
2023/09/03 01:53:52;;;;;;;11.43;9.38;;;12.90;99.90;;;;;;5099804;28;20055;-57
2023/09/03 01:56:20;;;;;;;8.18;7.15;;;12.90;99.90;;;;;;5071769;28;20509;-57
2023/09/03 01:58:49;;;;;;;11.57;6.80;;;12.80;99.90;;;;;;5058268;28;20052;-57
2023/09/03 02:01:17;;;;;;;8.23;5.70;;;12.70;99.90;;;;;;5065440;28;20514;-57
2023/09/03 02:03:45;;;;;;;8.32;7.10;;;12.70;99.90;;;;;;5075975;28;20059;-56
2023/09/03 02:06:11;;;;;;;8.05;5.95;;;12.60;99.90;;;;;;5071985;28;20052;-58
2023/09/03 02:08:37;;;;;;;12.90;7.78;;;12.70;99.90;;;;;;5054530;28;20048;-57
2023/09/03 02:11:02;;;;;;;12.10;7.53;;;12.70;99.90;;;;;;5105569;28;20054;-59
2023/09/03 02:13:28;;;;;;;8.82;6.88;;;12.60;99.90;;;;;;5106608;28;20051;-60
2023/09/03 02:15:54;;;;;;;9.15;5.43;;;12.60;99.90;;;;;;5104803;28;20124;-57
2023/09/03 02:18:20;;;;;;;8.20;5.78;;;12.50;99.90;;;;;;5107148;28;20109;-58
2023/09/03 02:20:45;;;;;;;7.63;6.47;;;12.60;99.90;;;;;;5104338;28;20055;-57
2023/09/03 02:23:11;;;;;;;6.57;5.53;;;12.50;99.90;;;;;;5071514;28;20144;-57
2023/09/03 02:25:38;;;;;;;8.00;5.55;;;12.50;99.90;;;;;;5050004;28;20057;-56
2023/09/03 02:28:06;;;;;;;8.65;6.82;;;12.50;99.90;;;;;;5080840;28;20052;-57
2023/09/03 02:30:35;;;;;;;9.30;6.43;;;12.50;99.90;;;;;;5109858;27;20134;-58
2023/09/03 02:33:01;;;;;;;6.57;5.47;;;12.50;99.90;;;;;;5106660;27;20043;-57
2023/09/03 02:35:27;;;;;;;7.15;5.80;;;12.50;99.90;;;;;;5092931;28;20507;-56
2023/09/03 02:37:53;;;;;;;9.60;6.43;;;12.50;99.90;;;;;;5107911;27;20059;-57
2023/09/03 02:40:19;;;;;;;11.10;7.75;;;12.50;99.90;;;;;;5109771;27;20064;-56
2023/09/03 02:42:44;;;;;;;8.98;7.90;;;12.50;99.90;;;;;;5115269;27;20055;-56
2023/09/03 02:45:10;;;;;;;7.55;6.47;;;12.50;99.90;;;;;;5102770;27;20048;-56
2023/09/03 02:47:36;;;;;;;7.57;6.53;;;12.50;99.90;;;;;;5090858;28;20059;-54
2023/09/03 02:50:01;;;;;;;5.95;5.35;;;12.50;99.90;;;;;;5098965;27;20884;-57
2023/09/03 02:52:27;;;;;;;7.50;6.28;;;12.50;99.90;;;;;;5094673;27;20146;-57
2023/09/03 02:54:53;;;;;;;7.65;5.70;;;12.40;99.90;;;;;;5092346;28;20056;-57
2023/09/03 02:57:18;;;;;;;6.00;5.03;;;12.30;99.90;;;;;;5106629;27;20492;-56
2023/09/03 02:59:44;;;;;;;8.40;6.18;;;12.40;99.90;;;;;;5099383;27;20051;-56
2023/09/03 03:02:10;;;;;;;10.13;7.07;;;12.40;99.90;;;;;;5069570;28;20051;-56
2023/09/03 03:04:36;;;;;;;8.68;6.65;;;12.40;99.90;;;;;;5105343;27;20134;-55
2023/09/03 03:07:01;;;;;;;9.10;6.53;;;12.40;99.90;;;;;;5111365;27;20071;-56
2023/09/03 03:09:27;;;;;;;7.30;6.05;;;12.40;99.90;;;;;;5116416;27;20066;-56
2023/09/03 03:11:53;;;;;;;9.90;6.00;;;12.40;99.90;;;;;;5111721;27;20522;-57
2023/09/03 03:14:18;;;;;;;8.00;7.00;;;12.40;99.90;;;;;;5118480;27;20059;-56
2023/09/03 03:16:44;;;;;;;8.50;6.40;;;12.40;99.90;;;;;;5103734;27;20104;-56
2023/09/03 03:19:11;;;;;;;5.75;5.15;;;12.40;99.90;;;;;;5062835;27;20055;-58
2023/09/03 03:21:36;;;;;;;6.18;5.43;;;12.30;99.90;;;;;;5106782;27;20040;-57
2023/09/03 03:24:04;;;;;;;10.30;5.78;;;12.30;99.90;;;;;;5112663;27;20070;-57
2023/09/03 03:26:31;;;;;;;8.02;5.32;;;12.30;99.90;;;;;;5097798;28;20052;-59
2023/09/03 03:28:57;;;;;;;7.18;6.03;;;12.20;99.90;;;;;;5100304;27;20432;-57
2023/09/03 03:31:23;;;;;;;5.53;4.93;;;12.20;99.90;;;;;;5107000;27;20059;-58
2023/09/03 03:33:49;;;;;;;5.28;4.70;;;12.20;99.90;;;;;;5090003;27;20060;-60
2023/09/03 03:36:21;;;;;;;4.78;4.13;;;12.80;99.90;;;;;;5110087;27;20058;-58
2023/09/03 03:38:48;;;;;;;5.32;4.82;;;12.10;99.90;;;;;;5099392;27;20097;-56
2023/09/03 03:41:18;;;;;;;4.50;3.72;;;12.10;99.90;;;;;;5090610;28;20079;-57
2023/09/03 03:43:49;;;;;;;4.65;4.15;;;12.10;99.90;;;;;;5080217;28;20108;-56
2023/09/03 03:46:17;;;;;;;4.50;4.00;;;12.10;99.90;;;;;;5090027;28;20040;-59
2023/09/03 03:48:43;;;;;;;5.05;4.45;;;12.10;99.90;;;;;;5066298;28;20506;-59
2023/09/03 03:51:09;;;;;;;6.13;5.07;;;12.10;99.90;;;;;;5084238;28;20071;-58
2023/09/03 03:53:36;;;;;;;5.65;4.97;;;12.10;99.90;;;;;;5101733;28;20086;-57
2023/09/03 03:56:04;;;;;;;8.30;5.65;;;12.20;99.90;;;;;;5089842;28;20139;-56
2023/09/03 03:58:35;;;;;;;5.82;5.15;;;12.20;99.90;;;;;;5101291;28;20052;-56
2023/09/03 04:01:10;;;;;;;5.80;5.20;;;12.20;99.90;;;;;;5057778;28;20439;-57
2023/09/03 04:03:35;;;;;;;7.00;6.00;;;12.20;99.90;;;;;;5075419;28;20059;-57
2023/09/03 04:06:02;;;;;;;6.40;5.75;;;12.10;99.90;;;;;;5068579;28;20051;-61
2023/09/03 04:08:31;;;;;;;5.22;4.72;;;12.10;99.90;;;;;;5104333;28;20051;-57
2023/09/03 04:11:00;;;;;;;5.70;5.07;;;12.10;99.90;;;;;;5102076;28;20055;-58
2023/09/03 04:13:27;;;;;;;5.10;4.60;;;12.10;99.90;;;;;;5103786;28;20098;-58
2023/09/03 04:15:54;;;;;;;5.25;4.75;;;12.00;99.90;;;;;;5100451;28;20059;-58
2023/09/03 04:18:20;;;;;;;5.53;5.03;;;12.10;99.90;;;;;;5103424;28;20051;-57
2023/09/03 04:20:46;;;;;;;5.28;4.35;;;12.10;99.90;;;;;;5102431;28;20606;-61
2023/09/03 04:23:11;;;;;;;5.68;5.07;;;12.00;99.90;;;;;;5082837;28;20075;-57
2023/09/03 04:25:38;;;;;;;5.07;4.50;;;12.00;99.90;;;;;;5103279;28;20140;-56
2023/09/03 04:28:04;;;;;;;5.18;4.68;;;12.00;99.90;;;;;;5104471;28;20051;-57
2023/09/03 04:30:30;;;;;;;5.20;4.68;;;12.10;99.90;;;;;;5105251;28;20058;-57
2023/09/03 04:32:56;;;;;;;3.90;3.55;;;12.00;99.90;;;;;;5102833;28;20469;-56
2023/09/03 04:35:21;;;;;;;5.18;4.68;;;12.00;99.90;;;;;;5105434;28;20139;-60
2023/09/03 04:37:48;;;;;;;5.32;4.80;;;12.00;99.90;;;;;;5100815;28;20055;-57
2023/09/03 04:40:15;;;;;;;5.32;4.60;;;12.00;99.90;;;;;;5103785;28;20536;-57
2023/09/03 04:42:41;;;;;;;5.32;4.57;;;12.00;99.90;;;;;;5100966;28;20185;-56
2023/09/03 04:45:07;;;;;;;5.25;4.32;;;12.00;99.90;;;;;;5070323;28;20501;-56
2023/09/03 04:47:36;;;;;;;8.23;5.85;;;12.00;99.90;;;;;;5059396;28;20103;-57
2023/09/03 04:50:01;;;;;;;5.10;4.60;;;12.00;99.90;;;;;;5102491;28;20458;-57
2023/09/03 04:52:27;;;;;;;5.38;4.55;;;12.00;99.90;;;;;;5097555;28;20113;-58
2023/09/03 04:54:53;;;;;;;5.75;4.80;;;12.00;99.90;;;;;;5099282;28;20174;-56
2023/09/03 04:57:20;;;;;;;4.10;3.72;;;12.00;99.90;;;;;;5103482;28;20055;-57
2023/09/03 04:59:46;;;;;;;5.97;3.83;;;12.00;99.90;;;;;;5096506;28;20044;-57
2023/09/03 05:02:11;;;;;;;4.50;3.97;;;12.00;99.90;;;;;;5104335;28;20078;-57
2023/09/03 05:04:37;;;;;;;4.20;3.80;;;12.00;99.90;;;;;;5103413;28;20056;-56
2023/09/03 05:07:04;;;;;;;3.40;3.10;;;12.00;99.90;;;;;;5103356;28;20060;-56
2023/09/03 05:09:31;;;;;;;4.68;4.28;;;12.00;99.90;;;;;;5086390;28;20461;-57
2023/09/03 05:11:56;;;;;;;3.60;3.25;;;12.10;99.90;;;;;;5100918;28;20055;-58
2023/09/03 05:14:22;;;;;;;2.80;2.60;;;12.10;99.90;;;;;;5104027;28;20044;-61
2023/09/03 05:16:48;;;;;;;4.07;3.67;;;12.10;99.90;;;;;;5102056;28;20058;-57
2023/09/03 05:19:14;;;;;;;5.57;4.10;;;12.20;99.90;;;;;;5099480;28;20513;-57
2023/09/03 05:21:41;;;;;;;4.22;3.65;;;12.20;99.90;;;;;;5102386;28;20047;-57
2023/09/03 05:24:07;;;;;;;4.55;4.10;;;12.10;99.90;;;;;;5088610;28;20140;-57
2023/09/03 05:26:58;;;;;;;6.22;4.80;;;12.10;99.90;;;;;;5108456;28;20196;-57
2023/09/03 05:29:24;;;;;;;5.43;4.85;;;12.10;99.90;;;;;;5105518;28;20138;-57
2023/09/03 05:31:52;;;;;;;4.63;4.22;;;12.10;99.90;;;;;;5105369;28;20138;-57
2023/09/03 05:34:18;;;;;;;8.90;4.72;;;12.10;99.90;;;;;;5107574;28;20056;-57
2023/09/03 05:36:43;;;;;;;4.85;4.10;;;12.10;99.90;;;;;;5105288;28;20047;-58
2023/09/03 05:39:09;;;;;;;5.28;4.43;;;12.20;99.90;;;;;;5107436;28;20493;-57
2023/09/03 05:41:36;;;;;;;5.90;4.47;;;12.20;99.90;;;;;;5108137;28;20055;-58
2023/09/03 05:44:06;;;;;;;5.72;4.15;;;12.30;99.90;;;;;;5086255;28;20497;-57
2023/09/03 05:46:35;;;;;;;4.93;3.88;;;12.50;99.90;;;;;;5107781;28;20088;-58
2023/09/03 05:49:01;;;;;;;4.68;4.13;;;12.60;99.90;;;;;;5085368;28;20056;-56
2023/09/03 05:51:27;;;;;;;5.17;4.67;;;12.80;99.90;;;;;;5068904;28;1091641;-57
2023/09/03 05:53:53;;;;;;;8.15;5.00;;;13.00;99.90;;;;;;5082317;28;20322;-56
2023/09/03 05:56:19;;;;;;;6.75;4.18;;;13.10;99.90;;;;;;5085061;28;20135;-57
2023/09/03 05:58:45;;;;;;;6.43;4.65;;;13.20;99.90;;;;;;5104275;28;20100;-56
2023/09/03 06:01:11;;;;;;;6.00;5.30;;;13.40;99.90;;;;;;5103455;28;20158;-57
2023/09/03 06:03:38;;;;;;;6.30;4.78;;;13.50;99.90;;;;;;5105718;28;20051;-55
2023/09/03 06:06:05;;;;;;;6.93;5.65;;;13.70;99.90;;;;;;5106474;28;20051;-56
2023/09/03 06:10:57;;;;;;;6.30;5.35;;;14.00;99.90;;;;;;5104346;28;20085;-57
2023/09/03 06:13:23;;;;;;;6.03;4.88;;;14.10;99.90;;;;;;5106550;28;20047;-57
2023/09/03 06:15:49;;;;;;;5.78;5.10;;;14.20;99.90;;;;;;5086226;28;20051;-57
2023/09/03 06:18:15;;;;;;;6.60;5.97;;;14.40;99.90;;;;;;5106851;28;20482;-57
2023/09/03 06:20:41;;;;;;;6.78;6.00;;;14.50;99.90;;;;;;5104741;28;20816;-55
2023/09/03 06:23:08;;;;;;;5.47;4.97;;;14.60;99.90;;;;;;5106446;28;20055;-57
2023/09/03 06:25:35;;;;;;;7.25;6.55;;;14.80;99.90;;;;;;5064499;28;20051;-56
2023/09/03 06:28:02;;;;;;;5.95;5.35;;;14.90;99.90;;;;;;5081301;27;20051;-57
2023/09/03 06:30:28;;;;;;;4.63;4.07;;;15.00;99.90;;;;;;5076143;28;20059;-57
2023/09/03 06:32:54;;;;;;;6.05;5.22;;;15.20;99.90;;;;;;5101349;28;20055;-56
2023/09/03 06:35:20;;;;;;;4.95;4.28;;;15.40;99.90;;;;;;5105376;28;20063;-56
2023/09/03 06:37:45;;;;;;;5.50;4.97;;;15.60;99.90;;;;;;5101335;28;20102;-56
2023/09/03 06:40:14;;;;;;;5.53;4.90;;;15.80;99.90;;;;;;5106866;28;20040;-56
2023/09/03 06:42:44;;;;;;;4.57;4.15;;;15.90;99.90;;;;;;5103636;28;20438;-57
2023/09/03 06:45:10;;;;;;;4.70;4.30;;;16.10;99.90;;;;;;5106445;28;20165;-57
2023/09/03 06:47:38;;;;;;;5.18;4.68;;;16.50;99.90;;;;;;5081574;28;20053;-56
2023/09/03 06:50:07;;;;;;;5.43;4.07;;;16.60;99.90;;;;;;5083674;28;20063;-58
2023/09/03 06:52:36;;;;;;;5.07;4.65;;;16.80;99.90;;;;;;5106903;28;20071;-56
2023/09/03 06:55:02;;;;;;;5.63;4.60;;;17.00;99.90;;;;;;5103162;28;20083;-57
2023/09/03 06:57:28;;;;;;;5.95;4.95;;;17.30;99.90;;;;;;5105360;28;20074;-60
2023/09/03 06:59:54;;;;;;;4.90;4.40;;;17.50;99.90;;;;;;5097509;28;20514;-63
2023/09/03 07:02:20;;;;;;;4.57;4.18;;;17.60;99.90;;;;;;5069780;28;20426;-60
2023/09/03 07:04:46;;;;;;;5.07;3.97;;;17.80;99.90;;;;;;5101563;28;20062;-59
2023/09/03 07:07:12;;;;;;;5.88;4.57;;;18.00;99.90;;;;;;5101741;28;20063;-58
2023/09/03 07:09:38;;;;;;;6.18;4.20;;;18.10;99.90;;;;;;5104548;28;20094;-56
2023/09/03 07:12:04;;;;;;;6.22;4.15;;;18.30;99.90;;;;;;5103307;28;21206;-57
2023/09/03 07:14:35;;;;;;;5.00;4.32;;;18.40;99.90;;;;;;5105339;28;20142;-62
2023/09/03 07:17:02;;;;;;;5.35;4.03;;;18.60;99.90;;;;;;5092997;28;20472;-62
2023/09/03 07:19:29;;;;;;;5.95;3.65;;;18.50;99.90;;;;;;5096806;28;20056;-64
2023/09/03 07:21:55;;;;;;;3.42;3.13;;;18.60;99.90;;;;;;5102794;28;20047;-64
2023/09/03 07:24:21;;;;;;;5.13;4.63;;;18.90;99.90;;;;;;5105129;28;20070;-64
2023/09/03 07:26:47;;;;;;;5.82;5.00;;;19.10;99.90;;;;;;5099932;28;20131;-63
2023/09/03 07:29:13;;;;;;;4.18;3.85;;;19.10;99.90;;;;;;5054904;28;20490;-63
2023/09/03 07:31:43;;;;;;;8.13;5.25;;;19.10;99.90;;;;;;5061042;28;20066;-62
2023/09/03 07:34:10;;;;;;;4.05;3.75;;;19.30;99.90;;;;;;5083436;28;20048;-65
2023/09/03 07:36:36;;;;;;;4.40;3.72;;;19.60;99.90;;;;;;5102519;28;20702;-61
2023/09/03 07:39:05;;;;;;;4.20;2.90;;;19.60;99.90;;;;;;5103950;28;20544;-65
2023/09/03 07:43:57;;;;;;;3.78;3.00;;;19.50;99.90;;;;;;5102330;28;20063;-57
2023/09/03 07:46:23;;;;;;;4.97;3.65;;;19.70;99.90;;;;;;5105186;28;20485;-59
2023/09/03 07:48:49;;;;;;;5.00;3.03;;;19.60;99.90;;;;;;5061239;28;20414;-59
2023/09/03 07:51:16;;;;;;;7.97;3.00;;;19.80;99.90;;;;;;5052967;28;20482;-58
2023/09/03 07:53:42;;;;;;;3.00;2.67;;;19.70;99.90;;;;;;5051663;28;20135;-62
2023/09/03 07:56:08;;;;;;;5.35;3.20;;;19.70;99.90;;;;;;5077956;28;20087;-62
2023/09/03 07:58:37;;;;;;;3.53;2.58;;;19.70;99.90;;;;;;5079500;28;20134;-57
2023/09/03 08:01:04;;;;;;;3.75;2.72;;;19.80;99.90;;;;;;5090172;28;20079;-57
2023/09/03 08:03:35;;;;;;;5.88;2.55;;;19.70;99.90;;;;;;5085937;28;20447;-57
2023/09/03 08:06:02;;;;;;;4.57;2.45;;;19.90;99.90;;;;;;5097062;27;20047;-57
2023/09/03 08:08:28;;;;;;;4.22;1.95;;;20.10;99.90;;;;;;5088944;27;20060;-56
2023/09/03 08:10:55;;;;;;;2.17;1.95;;;20.40;99.90;;;;;;5091285;27;20055;-57
2023/09/03 08:13:21;;;;;;;2.00;1.58;;;20.60;99.90;;;;;;5110140;27;20051;-56
2023/09/03 08:15:47;;;;;;;2.67;1.73;;;20.70;99.90;;;;;;5095240;27;20459;-57
2023/09/03 08:18:13;;;;;;;2.15;1.98;;;20.80;99.90;;;;;;5101614;27;20051;-56
2023/09/03 08:20:41;;;;;;;2.28;2.08;;;21.20;99.90;;;;;;5090318;27;20512;-57
2023/09/03 08:23:13;;;;;;;2.80;1.85;;;21.50;99.90;;;;;;5046400;28;20048;-56
2023/09/03 08:25:40;;;;;;;2.72;0.98;;;21.70;99.90;;;;;;5078373;28;20504;-56
2023/09/03 08:28:08;;;;;;;1.27;1.17;;;21.80;99.90;;;;;;5096755;28;20052;-56
2023/09/03 08:30:36;;;;;;;1.60;1.15;;;22.00;99.90;;;;;;5092100;28;20063;-56
2023/09/03 08:33:02;;;;;;;2.45;1.40;;;22.40;99.90;;;;;;5086933;27;20079;-57
2023/09/03 08:35:29;;;;;;;2.78;1.35;;;22.80;99.90;;;;;;5089853;28;20504;-57
2023/09/03 08:37:54;;;;;;;1.85;0.98;;;23.00;99.90;;;;;;5098828;27;20066;-58
2023/09/03 08:40:20;;;;;;;2.25;0.95;;;23.00;99.90;;;;;;5078931;28;20063;-57
2023/09/03 08:42:47;;;;;;;1.98;1.38;;;22.80;99.90;;;;;;5097626;28;20091;-58
2023/09/03 08:45:16;;;;;;;1.70;1.17;;;22.70;99.90;;;;;;5085378;27;20105;-58
2023/09/03 08:47:44;;;;;;;1.60;1.05;;;22.30;99.90;;;;;;5090439;28;20052;-57
2023/09/03 08:50:14;;;;;;;1.35;0.93;;;22.70;99.90;;;;;;5098615;27;20147;-57
2023/09/03 08:52:41;;;;;;;1.35;0.95;;;23.30;99.90;;;;;;5084799;27;20039;-61
2023/09/03 08:55:09;;;;;;;1.35;1.10;;;23.10;99.90;;;;;;5086686;27;20063;-58
2023/09/03 08:57:36;;;;;;;1.45;0.90;;;22.70;99.90;;;;;;5102848;27;20105;-58
2023/09/03 09:00:06;;;;;;;1.92;1.15;;;23.00;99.90;;;;;;5087189;27;20287;-57
2023/09/03 09:02:35;;;;;;;2.00;1.13;;;22.60;99.90;;;;;;5108137;27;20070;-58
2023/09/03 09:05:07;;;;;;;1.25;0.70;;;23.30;99.90;;;;;;5088607;28;20079;-57
2023/09/03 09:07:36;;;;;;;3.10;1.10;;;23.60;99.90;;;;;;5106366;27;20093;-57
2023/09/03 09:10:13;;;;;;;1.27;1.17;;;24.00;99.90;;;;;;5098340;27;20051;-58
2023/09/03 09:13:00;;;;;;;4.88;1.60;;;24.00;99.90;;;;;;5108281;27;20047;-59
2023/09/03 09:15:25;;;;;;;4.82;1.35;;;24.30;99.90;;;;;;5103137;27;20063;-57
2023/09/03 09:17:51;;;;;;;2.17;1.60;;;24.80;99.90;;;;;;5103307;27;20048;-58
2023/09/03 09:20:18;;;;;;;1.10;0.90;;;24.40;99.90;;;;;;5099725;27;21472;-57
2023/09/03 09:22:48;;;;;;;1.63;0.95;;;25.00;99.90;;;;;;5079324;27;20048;-57
2023/09/03 09:25:23;;;;;;;3.28;1.90;;;25.00;99.90;;;;;;5108568;27;20130;-58
2023/09/03 09:27:51;;;;;;;2.92;1.42;;;24.80;99.90;;;;;;5085858;27;20071;-57
2023/09/03 09:30:22;;;;;;;1.58;0.98;;;25.00;99.90;;;;;;5095409;28;20143;-57
2023/09/03 09:33:01;;;;;;;1.95;1.20;;;25.10;99.90;;;;;;5104959;27;20163;-57
2023/09/03 09:35:27;;;;;;;2.92;0.85;;;25.30;99.90;;;;;;5080509;27;20467;-58
2023/09/03 09:37:52;;;;;;;3.25;1.20;;;25.60;99.90;;;;;;5099700;27;20074;-57
2023/09/03 09:40:26;;;;;;;2.67;0.88;;;25.30;99.90;;;;;;5083758;28;20051;-58
2023/09/03 09:42:57;;;;;;;2.53;1.33;;;25.00;99.90;;;;;;5074108;28;20650;-57
2023/09/03 09:45:23;;;;;;;2.35;1.13;;;25.40;99.90;;;;;;5073042;28;20052;-57
2023/09/03 09:48:08;;;;;;;1.17;0.80;;;25.40;99.90;;;;;;5072024;28;20214;-59
2023/09/03 09:50:36;;;;;;;1.45;0.80;;;25.60;99.90;;;;;;5096334;28;20146;-64
2023/09/03 09:53:03;;;;;;;0.93;0.68;;;24.90;99.90;;;;;;5087916;28;20823;-60
2023/09/03 09:55:32;;;;;;;2.05;0.90;;;25.70;99.90;;;;;;5093478;27;20064;-59
2023/09/03 09:58:01;;;;;;;1.20;0.80;;;25.30;99.90;;;;;;5065021;28;20053;-58
2023/09/03 10:00:35;;;;;;;1.00;0.80;;;25.70;99.90;;;;;;5089961;28;20454;-58
2023/09/03 10:03:02;;;;;;;1.40;1.30;;;26.00;99.90;;;;;;5094395;28;20489;-57
2023/09/03 10:05:28;;;;;;;0.95;0.85;;;25.30;99.90;;;;;;5089993;27;20078;-58
2023/09/03 10:07:54;;;;;;;1.63;1.23;;;25.30;99.90;;;;;;5048023;28;1276043;-58
2023/09/03 10:10:20;;;;;;;1.17;0.98;;;25.20;99.90;;;;;;5097276;28;20056;-57
2023/09/03 10:12:46;;;;;;;1.25;0.77;;;25.30;99.90;;;;;;5096217;28;20048;-58
2023/09/03 10:15:14;;;;;;;2.63;1.42;;;25.00;99.90;;;;;;5090567;28;20063;-58
2023/09/03 10:17:42;;;;;;;1.77;1.13;;;24.90;99.90;;;;;;5092412;28;20055;-56
2023/09/03 10:20:11;;;;;;;2.72;1.00;;;24.60;99.90;;;;;;5095664;28;20496;-69
2023/09/03 10:22:40;;;;;;;1.92;0.90;;;24.30;99.90;;;;;;5096559;28;20460;-61
2023/09/03 10:25:10;;;;;;;2.13;0.98;;;24.40;99.90;;;;;;5085510;28;20083;-58
2023/09/03 10:27:41;;;;;;;2.28;0.80;;;25.30;99.90;;;;;;5051393;28;20067;-56
2023/09/03 10:30:09;;;;;;;2.80;1.15;;;24.80;99.90;;;;;;5057177;28;20505;-60
2023/09/03 10:32:36;;;;;;;1.58;0.88;;;24.80;99.90;;;;;;5069478;28;20052;-58
2023/09/03 10:35:12;;;;;;;2.03;1.20;;;25.30;99.90;;;;;;5086620;28;20047;-58
2023/09/03 10:37:41;;;;;;;1.88;1.10;;;25.60;99.90;;;;;;5092349;28;20058;-58
2023/09/03 10:40:29;;;;;;;0.77;0.60;;;26.00;99.90;;;;;;5101267;28;20059;-59
2023/09/03 10:43:14;;;;;;;1.65;1.00;;;26.60;99.90;;;;;;5092348;28;20064;-59
2023/09/03 10:46:00;;;;;;;0.90;0.80;;;26.50;99.90;;;;;;5091779;28;20052;-58
2023/09/03 10:48:27;;;;;;;1.23;0.95;;;26.70;99.90;;;;;;5100566;28;20075;-59
2023/09/03 10:50:53;;;;;;;1.02;0.82;;;26.10;99.90;;;;;;5095844;27;20091;-58
2023/09/03 10:56:15;;;;;;;1.95;1.05;;;26.90;99.90;;;;;;5095687;28;20059;-58
2023/09/03 10:58:58;;;;;;;2.42;0.90;;;27.10;99.90;;;;;;5098275;28;20070;-58
2023/09/03 11:01:30;;;;;;;1.75;0.93;;;27.00;99.90;;;;;;5099077;28;20051;-58
2023/09/03 11:03:58;;;;;;;0.65;0.57;;;26.90;99.90;;;;;;5093782;28;20070;-58
2023/09/03 11:06:25;;;;;;;0.90;0.82;;;26.40;99.90;;;;;;5098928;28;20147;-58
2023/09/03 11:09:12;;;;;;;0.98;0.70;;;26.00;99.90;;;;;;5092193;28;20094;-58
2023/09/03 11:11:39;;;;;;;1.58;0.73;;;26.50;99.90;;;;;;5073623;28;20414;-57
2023/09/03 11:14:10;;;;;;;1.65;0.80;;;26.60;99.90;;;;;;5092545;28;20052;-58
2023/09/03 11:16:38;;;;;;;1.42;0.80;;;25.70;99.90;;;;;;5075254;28;20162;-55
2023/09/03 11:19:07;;;;;;;1.63;0.82;;;25.50;99.90;;;;;;5084037;28;21026;-58
2023/09/03 11:21:37;;;;;;;1.27;1.10;;;25.70;99.90;;;;;;5096535;28;20265;-58
2023/09/03 11:24:05;;;;;;;1.88;0.68;;;26.40;99.90;;;;;;5099592;28;20056;-58
2023/09/03 11:26:37;;;;;;;3.33;0.85;;;28.40;99.90;;;;;;5091207;27;20044;-58
2023/09/03 11:29:03;;;;;;;1.40;1.00;;;29.90;99.90;;;;;;5092017;27;20060;-58
2023/09/03 11:31:29;;;;;;;1.00;0.88;;;30.30;99.90;;;;;;5081521;28;20067;-59
2023/09/03 11:33:56;;;;;;;2.33;0.90;;;31.60;99.90;;;;;;5094668;27;20080;-59
2023/09/03 11:36:24;;;;;;;2.22;0.80;;;32.10;99.90;;;;;;5102133;27;20044;-58
2023/09/03 11:38:51;;;;;;;2.03;1.00;;;31.90;99.90;;;;;;5076092;28;20083;-58
2023/09/03 11:41:20;;;;;;;1.70;0.80;;;33.00;99.20;;;;;;5052201;28;20497;-58
2023/09/03 11:43:46;;;;;;;1.35;0.70;;;32.90;98.50;;;;;;5094677;27;20640;-58
2023/09/03 11:46:16;;;;;;;1.75;0.77;;;32.50;97.80;;;;;;5092487;27;20051;-58
2023/09/03 11:48:50;;;;;;;0.95;0.75;;;34.00;97.50;;;;;;5089124;28;20098;-57
2023/09/03 11:51:28;;;;;;;2.90;0.90;;;34.00;96.10;;;;;;5099688;28;20056;-58
2023/09/03 11:53:54;;;;;;;0.65;0.50;;;34.90;95.80;;;;;;5060466;28;20056;-58
2023/09/03 11:56:21;;;;;;;2.17;0.65;;;33.80;95.20;;;;;;5094349;28;20052;-58
2023/09/03 11:58:51;;;;;;;1.88;1.10;;;33.90;95.90;;;;;;5069932;28;20056;-58
2023/09/03 12:01:17;;;;;;;0.70;0.68;;;33.70;95.40;;;;;;5091896;27;20138;-63
2023/09/03 12:03:43;;;;;;;2.92;0.82;;;34.10;94.20;;;;;;5064564;28;20063;-59
2023/09/03 12:06:09;;;;;;;0.80;0.80;;;34.60;93.80;;;;;;5103980;27;20063;-58
2023/09/03 12:08:35;;;;;;;0.93;0.70;;;34.20;94.10;;;;;;5066361;28;20051;-59
2023/09/03 12:11:01;;;;;;;2.58;0.90;;;35.20;93.00;;;;;;5077109;28;20059;-61
2023/09/03 12:13:37;;;;;;;0.60;0.60;;;35.10;94.30;;;;;;5098613;28;20053;-58
2023/09/03 12:16:16;;;;;;;0.82;0.70;;;34.00;93.60;;;;;;5098110;28;20059;-59
2023/09/03 12:18:55;;;;;;;0.77;0.77;;;32.20;94.50;;;;;;5064073;28;20502;-58
2023/09/03 12:24:08;;;;;;;0.90;0.65;;;29.00;96.60;;;;;;5088671;28;20059;-60
2023/09/03 12:26:37;;;;;;;0.98;0.80;;;28.90;97.80;;;;;;5099606;28;20058;-58
2023/09/03 12:29:04;;;;;;;1.58;0.80;;;28.60;98.80;;;;;;5083240;28;20079;-65
2023/09/03 12:31:35;;;;;;;1.05;0.63;;;28.10;98.90;;;;;;5095545;28;20629;-65
2023/09/03 12:34:01;;;;;;;0.75;0.73;;;28.80;98.80;;;;;;5097251;27;20055;-63
2023/09/03 12:36:27;;;;;;;1.65;0.88;;;28.60;99.40;;;;;;5097137;28;20051;-58
2023/09/03 12:38:58;;;;;;;1.10;0.57;;;29.50;98.90;;;;;;5087010;28;20497;-59
2023/09/03 12:41:30;;;;;;;0.60;0.60;;;29.20;98.90;;;;;;5099341;27;20051;-60
2023/09/03 12:44:07;;;;;;;1.33;0.80;;;28.50;99.70;;;;;;5098039;27;20064;-66
2023/09/03 12:49:03;;;;;;;1.17;0.82;;;27.40;99.40;;;;;;5085098;28;20063;-66
2023/09/03 12:51:30;;;;;;;4.05;0.80;;;27.40;99.90;;;;;;5102499;28;20052;-66
2023/09/03 12:53:56;;;;;;;1.08;0.70;;;27.40;99.90;;;;;;5099569;28;20093;-67
2023/09/03 12:56:21;;;;;;;2.50;0.75;;;27.40;99.90;;;;;;5098263;28;20043;-66
2023/09/03 12:58:47;;;;;;;2.97;0.85;;;27.10;99.90;;;;;;5096018;28;20092;-66
2023/09/03 13:01:13;;;;;;;1.58;0.70;;;26.80;99.90;;;;;;5097199;28;20051;-58
2023/09/03 13:03:39;;;;;;;3.15;0.60;;;26.60;99.90;;;;;;5101549;28;20094;-59
2023/09/03 13:06:05;;;;;;;1.00;0.90;;;25.80;99.90;;;;;;5092324;28;20063;-58